Time;durP1;ratioP1;P1;durP2;ratioP2;P2;SDS_P1;SDS_P2;PMS_P1;PMS_P2;Temp;Humidity;BMP_temperature;BMP_pressure;BME280_temperature;BME280_humidity;BME280_pressure;Samples;Min_cycle;Max_cycle;Signal;HPM_P1;HPM_P2
2022/08/15 00:00:41;;;;;;;8.57;4.50;;;19.70;99.90;;;;;;5031921;28;20597;-78
2022/08/15 00:03:19;;;;;;;7.22;4.20;;;19.70;99.90;;;;;;5031764;28;20025;-78
2022/08/15 00:05:45;;;;;;;5.45;4.15;;;19.70;99.90;;;;;;5031900;28;20104;-79
2022/08/15 00:08:11;;;;;;;5.80;4.80;;;19.70;99.90;;;;;;5031730;28;20080;-79
2022/08/15 00:10:37;;;;;;;8.32;4.45;;;19.70;99.90;;;;;;5013453;28;20568;-78
2022/08/15 00:13:15;;;;;;;6.63;4.18;;;19.60;99.90;;;;;;5025842;28;20053;-78
2022/08/15 00:15:41;;;;;;;5.88;4.00;;;19.60;99.90;;;;;;5020647;28;20090;-79
2022/08/15 00:18:07;;;;;;;6.43;4.22;;;19.60;99.90;;;;;;5031391;28;20029;-79
2022/08/15 00:20:37;;;;;;;6.47;4.05;;;19.70;99.90;;;;;;5031479;28;20029;-78
2022/08/15 00:23:07;;;;;;;6.38;3.90;;;19.60;99.90;;;;;;5031494;28;20381;-79
2022/08/15 00:25:35;;;;;;;6.20;4.10;;;19.60;99.90;;;;;;5031263;28;20108;-79
2022/08/15 00:28:00;;;;;;;5.32;4.20;;;19.60;99.90;;;;;;5013729;28;20033;-79
2022/08/15 00:30:26;;;;;;;8.88;4.40;;;19.60;99.90;;;;;;5031277;28;20025;-78
2022/08/15 00:32:55;;;;;;;6.55;3.72;;;19.50;99.90;;;;;;5030904;28;20029;-78
2022/08/15 00:35:36;;;;;;;6.43;4.13;;;19.60;99.90;;;;;;5031157;28;20745;-78
2022/08/15 00:38:07;;;;;;;6.20;3.63;;;19.50;99.90;;;;;;5031263;28;20048;-78
2022/08/15 00:41:39;;;;;;;6.05;4.00;;;19.50;99.90;;;;;;5030790;28;20025;-78
2022/08/15 00:43:21;;;;;;;5.88;4.38;;;19.50;99.90;;;;;;5031085;28;20033;-78
2022/08/15 00:45:47;;;;;;;8.20;4.25;;;19.50;99.90;;;;;;5030224;28;20022;-78
2022/08/15 00:50:57;;;;;;;7.63;3.95;;;19.40;99.90;;;;;;5030572;28;20044;-78
2022/08/15 00:53:23;;;;;;;5.78;3.58;;;19.40;99.90;;;;;;5030672;28;20017;-78
2022/08/15 00:55:49;;;;;;;9.43;4.18;;;19.50;99.90;;;;;;5029927;28;20044;-78
2022/08/15 00:58:16;;;;;;;5.97;4.03;;;19.50;99.90;;;;;;5030318;28;20159;-78
2022/08/15 01:00:45;;;;;;;5.20;3.40;;;19.50;99.90;;;;;;5012432;28;20040;-78
2022/08/15 01:03:14;;;;;;;7.53;3.88;;;19.50;99.90;;;;;;5030289;28;20025;-78
2022/08/15 01:05:40;;;;;;;10.25;3.95;;;19.50;99.90;;;;;;5030242;28;20037;-78
2022/08/15 01:08:06;;;;;;;8.23;3.42;;;19.50;99.90;;;;;;5030211;28;20112;-78
2022/08/15 01:10:34;;;;;;;4.97;3.38;;;19.60;99.90;;;;;;5030540;28;20092;-78
2022/08/15 01:13:00;;;;;;;5.75;3.40;;;19.60;99.90;;;;;;5016245;28;20017;-78
2022/08/15 01:15:25;;;;;;;6.75;3.75;;;19.60;99.90;;;;;;5012376;28;20592;-79
2022/08/15 01:17:51;;;;;;;4.80;3.70;;;19.60;99.90;;;;;;5030279;28;20444;-78
2022/08/15 01:20:23;;;;;;;7.65;4.88;;;19.60;99.90;;;;;;5029864;28;20494;-78
2022/08/15 01:23:01;;;;;;;6.28;3.50;;;19.60;99.90;;;;;;5030128;28;20116;-78
2022/08/15 01:25:33;;;;;;;4.65;3.70;;;19.60;99.90;;;;;;5030104;28;20076;-78
2022/08/15 01:28:15;;;;;;;6.90;4.32;;;19.60;99.90;;;;;;5030141;28;20035;-78
2022/08/15 01:30:44;;;;;;;4.65;3.42;;;19.60;99.90;;;;;;5030399;28;20026;-78
2022/08/15 01:33:11;;;;;;;7.63;3.75;;;19.60;99.90;;;;;;5030124;28;20083;-78
2022/08/15 01:35:38;;;;;;;5.35;3.85;;;19.60;99.90;;;;;;5030053;28;20064;-78
2022/08/15 01:38:05;;;;;;;6.53;3.75;;;19.60;99.90;;;;;;5029861;28;20026;-78
2022/08/15 01:40:47;;;;;;;10.20;4.70;;;19.60;99.90;;;;;;5030048;28;20052;-78
2022/08/15 01:43:17;;;;;;;10.07;4.00;;;19.60;99.90;;;;;;5029839;28;20056;-78
2022/08/15 01:45:44;;;;;;;5.68;3.67;;;19.60;99.90;;;;;;5029965;28;20029;-78
2022/08/15 01:48:24;;;;;;;4.20;3.22;;;19.60;99.90;;;;;;5012230;28;20053;-78
2022/08/15 01:50:54;;;;;;;6.35;3.67;;;19.60;99.90;;;;;;5029753;28;20095;-78
2022/08/15 01:53:27;;;;;;;8.57;4.20;;;19.50;99.90;;;;;;5012164;28;20104;-78
2022/08/15 01:56:07;;;;;;;5.90;3.60;;;19.50;99.90;;;;;;5030052;28;20151;-78
2022/08/15 01:58:37;;;;;;;7.47;4.15;;;19.50;99.90;;;;;;5021580;28;20021;-78
2022/08/15 02:01:19;;;;;;;8.45;3.95;;;19.50;99.90;;;;;;5033469;28;20510;-78
2022/08/15 02:03:48;;;;;;;4.80;3.50;;;19.50;99.90;;;;;;5033743;28;20025;-78
2022/08/15 02:06:18;;;;;;;6.85;3.50;;;19.50;99.90;;;;;;5033610;28;20100;-78
2022/08/15 02:08:44;;;;;;;8.18;3.78;;;19.50;99.90;;;;;;5033423;28;20029;-78
2022/08/15 02:11:16;;;;;;;5.22;3.60;;;19.50;99.90;;;;;;5032235;28;20032;-78
2022/08/15 02:13:43;;;;;;;11.32;3.90;;;19.50;99.90;;;;;;5026563;28;20124;-78
2022/08/15 02:16:09;;;;;;;11.48;4.05;;;19.50;99.90;;;;;;5028825;28;20029;-78
2022/08/15 02:18:35;;;;;;;5.35;3.75;;;19.50;99.90;;;;;;5033559;28;20079;-78
2022/08/15 02:21:00;;;;;;;7.90;3.63;;;19.50;99.90;;;;;;5033666;28;20022;-77
2022/08/15 02:23:26;;;;;;;5.30;3.35;;;19.50;99.90;;;;;;5033418;28;20370;-78
2022/08/15 02:25:54;;;;;;;6.63;4.15;;;19.50;99.90;;;;;;5033528;28;20474;-78
2022/08/15 02:28:21;;;;;;;7.30;3.60;;;19.50;99.90;;;;;;5033157;28;20021;-78
2022/08/15 02:30:47;;;;;;;7.25;3.47;;;19.50;99.90;;;;;;5032976;28;20040;-78
2022/08/15 02:33:13;;;;;;;7.13;3.70;;;19.50;99.90;;;;;;5015385;28;20374;-78
2022/08/15 02:35:39;;;;;;;9.52;3.83;;;19.50;99.90;;;;;;5033092;28;20066;-78
2022/08/15 02:38:06;;;;;;;6.10;3.40;;;19.60;99.90;;;;;;5033201;28;20026;-78
2022/08/15 02:40:33;;;;;;;7.10;3.20;;;19.60;99.90;;;;;;5033142;28;20018;-78
2022/08/15 02:43:05;;;;;;;5.22;3.47;;;19.60;99.90;;;;;;5033151;28;20041;-79
2022/08/15 02:45:37;;;;;;;5.28;3.25;;;19.60;99.90;;;;;;5032872;28;20108;-78
2022/08/15 02:48:06;;;;;;;6.22;3.85;;;19.60;99.90;;;;;;5033361;28;20018;-78
2022/08/15 02:50:33;;;;;;;7.15;3.85;;;19.60;99.90;;;;;;5032840;28;20116;-78
2022/08/15 02:53:02;;;;;;;6.97;3.60;;;19.60;99.90;;;;;;5032659;28;20092;-78
2022/08/15 02:55:27;;;;;;;4.82;3.83;;;19.70;99.90;;;;;;5032561;28;20067;-78
2022/08/15 02:57:54;;;;;;;6.40;3.22;;;19.70;99.90;;;;;;5032758;28;20458;-78
2022/08/15 03:00:20;;;;;;;8.27;3.70;;;19.70;99.90;;;;;;5030842;28;20017;-78
2022/08/15 03:03:14;;;;;;;5.50;3.40;;;19.70;99.90;;;;;;5032721;28;20036;-78
2022/08/15 03:05:45;;;;;;;5.68;3.50;;;19.70;99.90;;;;;;5029888;28;20528;-78
2022/08/15 03:08:11;;;;;;;8.07;3.42;;;19.70;99.90;;;;;;5032503;28;20051;-78
2022/08/15 03:10:40;;;;;;;8.85;3.53;;;19.70;99.90;;;;;;5032565;28;20044;-78
2022/08/15 03:13:13;;;;;;;7.00;3.20;;;19.70;99.90;;;;;;5025971;28;20083;-78
2022/08/15 03:15:43;;;;;;;6.15;3.30;;;19.70;99.90;;;;;;5032590;28;20124;-78
2022/08/15 03:18:10;;;;;;;4.57;3.05;;;19.70;99.90;;;;;;5032497;28;20036;-78
2022/08/15 03:20:36;;;;;;;6.40;3.20;;;19.80;99.90;;;;;;5032530;28;20045;-78
2022/08/15 03:23:04;;;;;;;4.45;3.33;;;19.80;99.90;;;;;;5032374;28;20837;-78
2022/08/15 03:25:30;;;;;;;8.02;3.10;;;19.80;99.90;;;;;;5032362;28;20021;-78
2022/08/15 03:27:56;;;;;;;9.40;3.20;;;19.90;99.90;;;;;;5032272;28;20091;-78
2022/08/15 03:30:22;;;;;;;7.07;3.22;;;19.90;99.90;;;;;;5032217;28;20058;-78
2022/08/15 03:32:58;;;;;;;6.68;3.53;;;19.90;99.90;;;;;;5031993;28;20052;-78
2022/08/15 03:35:26;;;;;;;7.88;3.47;;;20.00;99.90;;;;;;5031923;28;20026;-78
2022/08/15 03:37:52;;;;;;;6.25;3.00;;;20.00;99.90;;;;;;5031664;28;20067;-78
2022/08/15 03:40:18;;;;;;;7.28;3.08;;;20.10;99.90;;;;;;5031641;28;20049;-78
2022/08/15 03:42:52;;;;;;;4.63;2.88;;;20.10;99.90;;;;;;5031982;28;20505;-78
2022/08/15 03:45:19;;;;;;;6.80;3.05;;;20.20;99.90;;;;;;5031615;28;20018;-79
2022/08/15 03:47:45;;;;;;;4.22;2.83;;;20.20;99.90;;;;;;5031825;28;20725;-78
2022/08/15 03:50:12;;;;;;;5.22;3.00;;;20.10;99.90;;;;;;5031474;28;20056;-78
2022/08/15 03:52:57;;;;;;;6.05;2.88;;;20.10;99.90;;;;;;5031733;28;20509;-79
2022/08/15 03:55:25;;;;;;;5.53;3.42;;;20.10;99.90;;;;;;5031135;28;20021;-78
2022/08/15 03:57:52;;;;;;;6.75;3.08;;;20.10;99.90;;;;;;5031499;28;20074;-78
2022/08/15 04:00:21;;;;;;;9.30;3.20;;;20.00;99.90;;;;;;5030933;28;20063;-78
2022/08/15 04:02:47;;;;;;;4.68;2.60;;;20.10;99.90;;;;;;5031291;28;20152;-77
2022/08/15 04:05:13;;;;;;;7.40;3.10;;;20.10;99.90;;;;;;5030974;28;20112;-78
2022/08/15 04:07:38;;;;;;;6.05;3.20;;;20.10;99.90;;;;;;5031293;28;20021;-78
2022/08/15 04:10:08;;;;;;;6.97;2.80;;;20.10;99.90;;;;;;5031164;28;20171;-78
2022/08/15 04:12:38;;;;;;;9.07;3.35;;;20.10;99.90;;;;;;5024967;28;20029;-78
2022/08/15 04:15:07;;;;;;;7.15;3.17;;;20.10;99.90;;;;;;5031218;28;20029;-77
2022/08/15 04:17:33;;;;;;;6.90;3.30;;;20.10;99.90;;;;;;5013582;28;20029;-77
2022/08/15 04:19:59;;;;;;;4.78;3.03;;;20.10;99.90;;;;;;5030528;28;20041;-78
2022/08/15 04:22:34;;;;;;;4.25;2.95;;;20.00;99.90;;;;;;5030863;28;20130;-78
2022/08/15 04:25:13;;;;;;;6.28;3.08;;;20.00;99.90;;;;;;5031391;28;20541;-79
2022/08/15 04:27:40;;;;;;;7.43;3.15;;;20.00;99.90;;;;;;5030995;28;20076;-78
2022/08/15 04:30:07;;;;;;;7.30;3.10;;;20.00;99.90;;;;;;5030802;28;20430;-78
2022/08/15 04:32:33;;;;;;;4.72;2.97;;;20.10;99.90;;;;;;5030841;28;20053;-77
2022/08/15 04:34:59;;;;;;;4.82;2.58;;;20.10;99.90;;;;;;5030703;28;20049;-79
2022/08/15 04:37:26;;;;;;;6.40;2.97;;;20.20;99.90;;;;;;5030913;28;20021;-78
2022/08/15 04:39:53;;;;;;;7.53;3.38;;;20.10;99.90;;;;;;5030620;28;20032;-78
2022/08/15 04:42:19;;;;;;;5.60;3.03;;;20.10;99.90;;;;;;5030670;28;20076;-78
2022/08/15 04:44:49;;;;;;;4.32;2.83;;;20.10;99.90;;;;;;5030702;28;20816;-78
2022/08/15 04:47:15;;;;;;;4.22;2.75;;;20.00;99.90;;;;;;5030656;28;20109;-78
2022/08/15 04:49:41;;;;;;;8.48;3.38;;;20.00;99.90;;;;;;5030229;28;20143;-78
2022/08/15 04:52:19;;;;;;;7.72;2.95;;;19.90;99.90;;;;;;5030580;28;20463;-79
2022/08/15 04:54:46;;;;;;;7.40;3.20;;;19.90;99.90;;;;;;5013217;28;20132;-78
2022/08/15 04:57:15;;;;;;;7.50;3.47;;;19.90;99.90;;;;;;5016877;28;20037;-78
2022/08/15 04:59:41;;;;;;;7.78;3.28;;;19.90;99.90;;;;;;5030189;28;20039;-78
2022/08/15 05:02:09;;;;;;;5.97;3.22;;;19.90;99.90;;;;;;5030483;28;20025;-78
2022/08/15 05:04:35;;;;;;;6.28;2.85;;;19.80;99.90;;;;;;5030536;28;20017;-78
2022/08/15 05:07:01;;;;;;;5.20;2.90;;;19.80;99.90;;;;;;5030394;28;20390;-78
2022/08/15 05:09:26;;;;;;;5.07;2.80;;;19.80;99.90;;;;;;5030344;28;20100;-79
2022/08/15 05:11:52;;;;;;;4.32;2.60;;;19.80;99.90;;;;;;5023342;28;20030;-73
2022/08/15 05:14:18;;;;;;;6.25;2.75;;;19.90;99.90;;;;;;5029008;28;20033;-74
2022/08/15 05:16:43;;;;;;;5.72;2.90;;;19.80;99.90;;;;;;5030912;28;20402;-72
2022/08/15 05:19:09;;;;;;;6.82;2.90;;;19.80;99.90;;;;;;5030488;28;20553;-76
2022/08/15 05:21:35;;;;;;;8.25;2.85;;;19.80;99.90;;;;;;5031907;28;20036;-75
2022/08/15 05:24:01;;;;;;;4.50;2.90;;;19.80;99.90;;;;;;5031327;28;20104;-75
2022/08/15 05:26:26;;;;;;;7.57;2.95;;;19.70;99.90;;;;;;5030948;28;20113;-75
2022/08/15 05:28:52;;;;;;;6.40;2.80;;;19.70;99.90;;;;;;5031614;28;20462;-75
2022/08/15 05:31:17;;;;;;;7.22;3.22;;;19.70;99.90;;;;;;5013150;28;20033;-74
2022/08/15 05:33:45;;;;;;;4.30;2.60;;;19.50;99.90;;;;;;5031115;28;20101;-74
2022/08/15 05:36:12;;;;;;;7.93;3.40;;;19.50;99.90;;;;;;5029650;28;20022;-75
2022/08/15 05:38:40;;;;;;;10.65;3.47;;;19.40;99.90;;;;;;5017383;28;20026;-74
2022/08/15 05:41:14;;;;;;;5.55;3.15;;;19.10;99.90;;;;;;5018611;28;20026;-75
2022/08/15 05:43:53;;;;;;;7.45;3.22;;;18.90;99.90;;;;;;5017201;28;20017;-75
2022/08/15 05:46:43;;;;;;;7.65;3.50;;;18.70;99.90;;;;;;5022935;28;20030;-75
2022/08/15 05:49:50;;;;;;;8.07;4.75;;;18.50;99.90;;;;;;5029277;28;20022;-75
2022/08/15 05:52:33;;;;;;;5.85;3.15;;;18.30;99.90;;;;;;5030404;28;20382;-75
2022/08/15 05:55:11;;;;;;;6.85;3.47;;;18.20;99.90;;;;;;5024407;28;20030;-76
2022/08/15 05:57:56;;;;;;;7.70;3.35;;;18.10;99.90;;;;;;5026631;28;20042;-76
2022/08/15 06:00:24;;;;;;;5.40;3.40;;;18.00;99.90;;;;;;5025541;28;20422;-75
2022/08/15 06:02:57;;;;;;;6.85;3.35;;;18.00;99.90;;;;;;5030912;28;20136;-76
2022/08/15 06:05:38;;;;;;;4.78;3.03;;;18.00;99.90;;;;;;5007628;28;20055;-71
2022/08/15 06:08:11;;;;;;;5.30;3.35;;;18.00;99.90;;;;;;5028895;28;20529;-77
2022/08/15 06:10:42;;;;;;;7.47;4.05;;;18.00;99.90;;;;;;5028815;28;20037;-78
2022/08/15 06:13:27;;;;;;;6.85;4.32;;;18.10;99.90;;;;;;5024365;28;20045;-78
2022/08/15 06:16:16;;;;;;;6.25;3.15;;;18.10;99.90;;;;;;5029588;28;20083;-78
2022/08/15 06:18:43;;;;;;;6.57;3.55;;;18.20;99.90;;;;;;5011241;28;20025;-76
2022/08/15 06:21:32;;;;;;;4.43;3.17;;;18.20;99.90;;;;;;5031322;28;20514;-76
2022/08/15 06:24:28;;;;;;;5.75;3.22;;;18.30;99.90;;;;;;5029326;28;20025;-76
2022/08/15 06:27:27;;;;;;;4.90;3.05;;;18.30;99.90;;;;;;5029015;28;20155;-76
2022/08/15 06:30:01;;;;;;;4.07;2.90;;;18.40;99.90;;;;;;5030743;28;20076;-76
2022/08/15 06:32:36;;;;;;;4.22;2.67;;;18.40;99.90;;;;;;5031442;28;20037;-76
2022/08/15 06:35:35;;;;;;;7.55;3.50;;;18.40;99.90;;;;;;5031327;28;20033;-75
2022/08/15 06:38:21;;;;;;;7.35;3.30;;;18.50;99.90;;;;;;5025002;28;20507;-76
2022/08/15 06:41:01;;;;;;;4.93;2.72;;;18.50;99.90;;;;;;5029453;28;20021;-76
2022/08/15 06:43:27;;;;;;;5.22;2.65;;;18.50;99.90;;;;;;5032736;28;20105;-76
2022/08/15 06:45:55;;;;;;;4.32;2.85;;;18.60;99.90;;;;;;5034985;28;20104;-76
2022/08/15 06:48:35;;;;;;;4.20;2.45;;;18.60;99.90;;;;;;5034411;28;20036;-75
2022/08/15 06:51:03;;;;;;;3.65;2.30;;;18.50;99.90;;;;;;5030919;28;20120;-75
2022/08/15 06:53:42;;;;;;;3.30;2.00;;;18.60;99.90;;;;;;5034854;28;20039;-75
2022/08/15 06:56:32;;;;;;;4.88;2.15;;;18.60;99.90;;;;;;5034149;28;20038;-78
2022/08/15 06:59:01;;;;;;;2.45;1.90;;;18.70;99.90;;;;;;5022000;28;20100;-75
2022/08/15 07:01:57;;;;;;;3.45;2.13;;;18.70;99.90;;;;;;5033098;28;20112;-71
2022/08/15 07:04:33;;;;;;;2.95;2.20;;;18.80;99.90;;;;;;5022699;28;20144;-76
2022/08/15 07:07:08;;;;;;;3.50;2.05;;;18.90;99.90;;;;;;5032353;28;20820;-80
2022/08/15 07:09:42;;;;;;;4.25;2.60;;;19.00;99.90;;;;;;5014254;28;20037;-72
2022/08/15 07:12:53;;;;;;;2.92;1.85;;;19.10;99.90;;;;;;5019184;28;20029;-73
2022/08/15 07:15:40;;;;;;;3.13;1.95;;;19.20;99.90;;;;;;4959100;28;20043;-73
2022/08/15 07:18:30;;;;;;;3.03;2.10;;;19.40;99.90;;;;;;5021298;28;20018;-74
2022/08/15 07:21:07;;;;;;;3.90;2.15;;;19.60;99.90;;;;;;5032405;28;20524;-72
2022/08/15 07:23:35;;;;;;;3.10;2.05;;;19.80;99.90;;;;;;5032452;28;20533;-72
2022/08/15 07:26:11;;;;;;;3.20;1.95;;;19.90;99.90;;;;;;5032353;28;20067;-72
2022/08/15 07:28:42;;;;;;;3.35;2.13;;;20.00;99.90;;;;;;5032414;28;20064;-73
2022/08/15 07:31:15;;;;;;;4.35;1.90;;;20.20;99.90;;;;;;5031921;28;20029;-73
2022/08/15 07:33:47;;;;;;;3.50;2.08;;;20.30;99.90;;;;;;5014462;28;20025;-73
2022/08/15 07:36:16;;;;;;;3.05;2.13;;;20.40;99.90;;;;;;5031995;28;20021;-73
2022/08/15 07:38:41;;;;;;;2.55;1.90;;;20.60;99.90;;;;;;5031157;28;20394;-73
2022/08/15 07:41:29;;;;;;;3.58;2.00;;;20.70;99.90;;;;;;5031746;28;20107;-73
2022/08/15 07:44:22;;;;;;;3.83;2.10;;;20.90;99.90;;;;;;5031609;28;20026;-73
2022/08/15 07:47:00;;;;;;;3.58;2.10;;;21.00;99.90;;;;;;5031546;28;20037;-73
2022/08/15 07:49:29;;;;;;;4.10;2.20;;;21.30;99.90;;;;;;5031534;28;20037;-74
2022/08/15 07:52:06;;;;;;;3.25;2.10;;;21.50;99.90;;;;;;5031377;28;20487;-74
2022/08/15 07:54:51;;;;;;;3.28;2.00;;;21.80;99.90;;;;;;5030139;28;20025;-81
2022/08/15 07:57:33;;;;;;;3.35;2.00;;;22.00;99.90;;;;;;5045043;28;20033;-72
2022/08/15 08:00:05;;;;;;;4.50;2.17;;;22.30;99.90;;;;;;5035236;28;20037;-72
2022/08/15 08:02:43;;;;;;;2.97;1.80;;;22.40;99.90;;;;;;5034768;28;20033;-72
2022/08/15 08:05:10;;;;;;;3.03;2.13;;;22.60;99.90;;;;;;5034874;28;20033;-72
2022/08/15 08:07:46;;;;;;;4.70;2.10;;;22.80;99.90;;;;;;5034614;28;20048;-72
2022/08/15 08:10:14;;;;;;;3.08;2.22;;;22.70;99.90;;;;;;5034735;28;20094;-72
2022/08/15 08:13:00;;;;;;;4.18;2.30;;;22.60;99.90;;;;;;5019436;28;20096;-73
2022/08/15 08:15:32;;;;;;;5.80;2.28;;;22.60;99.90;;;;;;5034636;28;20095;-72
2022/08/15 08:18:08;;;;;;;4.47;2.65;;;22.50;99.90;;;;;;5033965;28;20018;-70
2022/08/15 08:20:45;;;;;;;2.90;1.67;;;22.40;99.90;;;;;;5033074;28;20393;-70
2022/08/15 08:23:19;;;;;;;3.33;2.20;;;22.40;99.90;;;;;;5026168;28;20026;-70
2022/08/15 08:26:06;;;;;;;6.70;2.50;;;22.30;99.90;;;;;;5034011;28;20029;-70
2022/08/15 08:29:06;;;;;;;4.95;2.20;;;22.30;99.90;;;;;;5033848;28;20034;-72
2022/08/15 08:31:38;;;;;;;3.90;1.95;;;22.40;99.90;;;;;;5032590;28;20088;-71
2022/08/15 08:34:22;;;;;;;2.90;1.88;;;22.40;99.90;;;;;;5031521;28;20076;-75
2022/08/15 08:36:48;;;;;;;;;;;22.40;99.90;;;;;;5030703;28;20488;-75
2022/08/15 08:39:33;;;;;;;4.55;2.15;;;22.40;99.90;;;;;;5029987;28;19905;-75
2022/08/15 08:42:10;;;;;;;5.05;2.05;;;22.40;99.90;;;;;;5028623;28;20034;-75
2022/08/15 08:44:44;;;;;;;3.08;2.35;;;22.30;99.90;;;;;;5029769;28;20037;-75
2022/08/15 08:47:35;;;;;;;2.92;2.17;;;22.30;99.90;;;;;;5027833;28;20025;-74
2022/08/15 08:50:27;;;;;;;3.78;2.25;;;22.20;99.90;;;;;;5021455;28;20119;-74
2022/08/15 08:53:28;;;;;;;3.70;2.20;;;22.00;99.90;;;;;;5004175;28;20053;-74
2022/08/15 08:56:14;;;;;;;3.50;2.38;;;22.00;99.90;;;;;;5024156;28;20156;-74
2022/08/15 08:58:53;;;;;;;2.95;2.22;;;21.90;99.90;;;;;;5022238;28;20084;-74
2022/08/15 09:01:25;;;;;;;2.20;2.00;;;21.90;99.90;;;;;;5023549;28;20517;-74
2022/08/15 09:03:56;;;;;;;2.92;2.00;;;21.90;99.90;;;;;;5020339;28;20026;-74
2022/08/15 09:06:25;;;;;;;3.08;2.00;;;21.90;99.90;;;;;;5021076;28;20112;-75
2022/08/15 09:09:18;;;;;;;4.10;2.03;;;21.90;99.90;;;;;;5017905;28;20102;-74
2022/08/15 09:11:49;;;;;;;4.53;2.05;;;22.00;99.90;;;;;;5023179;28;20044;-75
2022/08/15 09:14:17;;;;;;;4.10;2.22;;;22.10;99.90;;;;;;5020452;28;20056;-75
2022/08/15 09:16:45;;;;;;;4.15;2.30;;;22.20;99.90;;;;;;5029566;28;20401;-75
2022/08/15 09:19:27;;;;;;;3.40;2.25;;;22.40;99.90;;;;;;5029223;28;20064;-75
2022/08/15 09:21:53;;;;;;;2.78;2.03;;;22.40;99.90;;;;;;5028775;28;20484;-75
2022/08/15 09:24:21;;;;;;;2.75;2.10;;;22.60;99.90;;;;;;5028560;28;20033;-75
2022/08/15 09:26:49;;;;;;;3.88;2.10;;;22.70;99.90;;;;;;5009425;28;20033;-75
2022/08/15 09:29:18;;;;;;;3.40;2.25;;;22.80;99.90;;;;;;5029390;28;20661;-73
2022/08/15 09:32:08;;;;;;;4.20;1.88;;;23.00;99.90;;;;;;5029069;28;20037;-76
2022/08/15 09:34:40;;;;;;;3.47;2.10;;;23.20;99.90;;;;;;5029697;28;20025;-76
2022/08/15 09:37:06;;;;;;;3.30;2.00;;;23.30;99.90;;;;;;5029147;28;20029;-76
2022/08/15 09:39:54;;;;;;;3.17;2.08;;;23.60;99.90;;;;;;5025970;28;20056;-75
2022/08/15 09:42:20;;;;;;;5.90;2.15;;;23.70;99.90;;;;;;5022119;28;20422;-76
2022/08/15 09:45:07;;;;;;;2.90;2.00;;;23.90;99.90;;;;;;5017481;28;20025;-75
2022/08/15 09:48:01;;;;;;;2.83;2.00;;;23.90;99.90;;;;;;5013506;28;20512;-76
2022/08/15 09:51:05;;;;;;;2.70;1.85;;;23.90;99.90;;;;;;5028818;28;20057;-76
2022/08/15 09:53:37;;;;;;;4.90;2.22;;;24.00;99.90;;;;;;5019097;28;20040;-76
2022/08/15 09:56:09;;;;;;;5.22;2.10;;;24.20;99.90;;;;;;5027151;28;20076;-75
2022/08/15 09:59:00;;;;;;;3.67;2.42;;;24.30;99.90;;;;;;5010909;28;20379;-76
2022/08/15 10:01:29;;;;;;;2.50;1.90;;;24.30;99.90;;;;;;4998975;28;20105;-76
2022/08/15 10:03:59;;;;;;;3.03;2.08;;;24.40;99.90;;;;;;5019964;28;20406;-76
2022/08/15 10:06:47;;;;;;;3.50;2.03;;;24.40;99.90;;;;;;5025221;28;20034;-76
2022/08/15 10:09:21;;;;;;;2.75;2.10;;;24.50;99.90;;;;;;5019394;28;20485;-76
2022/08/15 10:11:47;;;;;;;;;;;24.60;99.90;;;;;;5018432;28;20445;-75
2022/08/15 10:14:21;;;;;;;2.63;1.80;;;24.60;99.90;;;;;;5023458;28;20017;-75
2022/08/15 10:16:52;;;;;;;2.55;2.00;;;24.60;99.90;;;;;;5019043;28;20151;-75
2022/08/15 10:19:38;;;;;;;3.38;2.00;;;24.50;99.90;;;;;;5016505;28;20553;-76
2022/08/15 10:22:22;;;;;;;3.75;2.05;;;24.50;99.90;;;;;;5020009;28;20128;-76
2022/08/15 10:25:12;;;;;;;3.85;2.45;;;24.50;99.90;;;;;;5026345;28;20033;-75
2022/08/15 10:28:05;;;;;;;3.60;2.08;;;24.40;99.90;;;;;;5032523;28;20093;-75
2022/08/15 10:30:34;;;;;;;3.75;2.45;;;24.40;99.90;;;;;;5032565;28;20017;-75
2022/08/15 10:33:01;;;;;;;4.35;2.20;;;24.40;99.90;;;;;;5032857;28;20064;-76
2022/08/15 10:35:36;;;;;;;3.13;2.00;;;24.40;99.90;;;;;;5032620;28;20021;-76
2022/08/15 10:38:07;;;;;;;2.88;2.00;;;24.50;99.90;;;;;;5032760;28;20443;-76
2022/08/15 10:41:06;;;;;;;6.15;2.40;;;24.40;99.90;;;;;;5032725;28;20529;-74
2022/08/15 10:43:32;;;;;;;3.30;2.03;;;24.40;99.90;;;;;;5033403;28;20108;-74
2022/08/15 10:46:42;;;;;;;3.67;2.00;;;24.40;99.90;;;;;;5034557;28;20107;-77
2022/08/15 10:49:27;;;;;;;3.72;2.25;;;24.50;99.90;;;;;;4985306;28;20045;-78
2022/08/15 10:52:21;;;;;;;3.05;2.13;;;24.50;99.90;;;;;;5032984;28;20014;-78
2022/08/15 10:55:05;;;;;;;3.35;2.30;;;24.70;99.90;;;;;;5029512;28;20113;-78
2022/08/15 10:57:39;;;;;;;2.75;2.00;;;24.80;99.90;;;;;;5023669;28;20056;-78
2022/08/15 11:00:07;;;;;;;3.13;1.92;;;24.70;99.90;;;;;;5022968;28;20112;-79
2022/08/15 11:02:38;;;;;;;2.72;1.92;;;24.80;99.90;;;;;;5020761;28;20029;-79
2022/08/15 11:05:09;;;;;;;6.60;2.50;;;24.90;99.90;;;;;;5020102;28;20124;-79
2022/08/15 11:07:37;;;;;;;3.60;1.90;;;24.90;99.90;;;;;;5022530;28;20043;-79
2022/08/15 11:10:13;;;;;;;4.85;2.38;;;25.00;99.90;;;;;;5021475;28;20029;-79
2022/08/15 11:12:48;;;;;;;3.83;1.70;;;25.10;99.90;;;;;;5037031;28;20348;-83
2022/08/15 11:15:19;;;;;;;3.03;2.03;;;25.30;99.90;;;;;;5036758;28;20034;-80
2022/08/15 11:17:49;;;;;;;2.97;1.77;;;25.40;99.90;;;;;;5024934;28;20045;-79
2022/08/15 11:20:21;;;;;;;2.78;2.00;;;25.40;99.90;;;;;;5035044;28;20025;-74
2022/08/15 11:22:58;;;;;;;3.85;1.83;;;25.60;99.90;;;;;;5035535;28;20061;-75
2022/08/15 11:25:27;;;;;;;2.45;1.70;;;25.60;99.90;;;;;;5035596;28;20028;-75
2022/08/15 11:28:04;;;;;;;3.67;2.08;;;25.90;99.90;;;;;;5035814;28;20359;-75
2022/08/15 11:30:37;;;;;;;3.22;2.00;;;25.90;99.90;;;;;;5032283;28;20417;-80
2022/08/15 11:33:25;;;;;;;3.33;1.90;;;25.90;99.90;;;;;;5030972;28;20025;-79
2022/08/15 11:36:10;;;;;;;2.40;1.83;;;25.90;99.90;;;;;;5031536;28;20351;-79
2022/08/15 11:38:41;;;;;;;2.60;2.00;;;25.90;99.90;;;;;;5029568;28;20486;-80
2022/08/15 11:41:07;;;;;;;3.15;1.77;;;26.00;99.90;;;;;;5031690;28;20035;-79
2022/08/15 11:43:33;;;;;;;3.05;2.05;;;26.00;99.90;;;;;;5028947;28;20030;-79
2022/08/15 11:46:00;;;;;;;2.83;1.80;;;26.00;99.90;;;;;;5031007;28;20029;-79
2022/08/15 11:48:30;;;;;;;2.80;1.83;;;26.10;99.90;;;;;;5031007;28;20053;-79
2022/08/15 11:51:21;;;;;;;3.05;1.83;;;26.00;99.90;;;;;;5031335;28;20474;-79
2022/08/15 11:54:05;;;;;;;3.70;1.77;;;26.00;99.90;;;;;;5028845;28;20030;-79
2022/08/15 11:56:51;;;;;;;2.17;1.60;;;26.10;99.90;;;;;;5029356;28;20458;-79
2022/08/15 11:59:28;;;;;;;4.93;2.25;;;26.00;99.90;;;;;;5028477;28;20132;-79
2022/08/15 12:02:03;;;;;;;2.40;1.70;;;26.00;99.90;;;;;;5029829;28;20560;-79
2022/08/15 12:04:34;;;;;;;2.95;1.80;;;25.80;99.90;;;;;;5029841;28;20025;-79
2022/08/15 12:07:13;;;;;;;2.70;1.63;;;25.80;99.90;;;;;;5024629;28;20087;-79
2022/08/15 12:09:47;;;;;;;3.28;1.80;;;25.80;99.90;;;;;;5026243;28;20022;-78
2022/08/15 12:12:30;;;;;;;2.70;1.85;;;25.60;99.90;;;;;;5026789;28;20052;-79
2022/08/15 12:15:02;;;;;;;2.03;1.60;;;25.40;99.90;;;;;;5020148;28;20037;-79
2022/08/15 12:17:30;;;;;;;3.28;2.10;;;25.20;99.90;;;;;;5032050;28;20036;-79
2022/08/15 12:19:57;;;;;;;2.80;1.95;;;25.00;99.90;;;;;;5032490;28;20033;-79
2022/08/15 12:22:39;;;;;;;4.50;2.20;;;24.90;99.90;;;;;;5033900;28;20638;-83
2022/08/15 12:25:07;;;;;;;3.50;2.22;;;24.70;99.90;;;;;;5019488;28;20029;-77
2022/08/15 12:27:37;;;;;;;3.55;2.20;;;24.40;99.90;;;;;;5028520;28;20039;-74
2022/08/15 12:30:05;;;;;;;4.05;2.55;;;24.20;99.90;;;;;;5020130;28;20044;-77
2022/08/15 12:32:32;;;;;;;3.22;2.42;;;24.20;99.90;;;;;;5012407;28;20053;-77
2022/08/15 12:34:59;;;;;;;3.45;2.47;;;24.30;99.90;;;;;;5018051;28;20482;-78
2022/08/15 12:37:26;;;;;;;3.88;2.00;;;24.60;99.90;;;;;;5030757;28;20458;-75
2022/08/15 12:39:57;;;;;;;3.05;1.90;;;24.90;99.90;;;;;;5030137;28;20029;-76
2022/08/15 12:42:27;;;;;;;2.78;1.83;;;25.70;99.90;;;;;;5027552;28;20425;-78
2022/08/15 12:44:58;;;;;;;2.47;1.77;;;26.60;99.90;;;;;;5030701;28;20484;-76
2022/08/15 12:47:31;;;;;;;4.07;1.83;;;27.30;99.90;;;;;;5027884;28;20029;-77
2022/08/15 12:49:58;;;;;;;2.30;1.80;;;28.10;99.90;;;;;;5030377;28;20026;-76
2022/08/15 12:52:24;;;;;;;3.53;2.25;;;28.70;99.90;;;;;;5027860;28;20025;-76
2022/08/15 12:54:51;;;;;;;7.43;1.92;;;29.10;99.90;;;;;;5030767;28;20097;-77
2022/08/15 12:57:17;;;;;;;2.95;1.83;;;29.50;99.90;;;;;;5027308;28;20069;-77
2022/08/15 12:59:43;;;;;;;2.63;1.92;;;30.10;99.90;;;;;;5030883;28;20040;-71
2022/08/15 13:02:11;;;;;;;3.20;1.80;;;30.10;99.90;;;;;;5034171;28;20472;-70
2022/08/15 13:04:42;;;;;;;2.60;1.60;;;30.30;99.90;;;;;;5034073;28;20389;-70
2022/08/15 13:07:08;;;;;;;1.95;1.63;;;30.70;97.50;;;;;;5033972;28;20029;-70
2022/08/15 13:09:34;;;;;;;2.05;1.42;;;30.70;97.40;;;;;;5033802;28;20030;-71
2022/08/15 13:12:01;;;;;;;3.28;1.75;;;31.10;95.20;;;;;;5033882;28;20365;-70
2022/08/15 13:14:27;;;;;;;3.25;1.83;;;31.00;94.30;;;;;;5032261;28;20021;-76
2022/08/15 13:16:54;;;;;;;5.75;1.85;;;31.20;93.60;;;;;;5028473;28;20382;-77
2022/08/15 13:19:24;;;;;;;2.83;1.90;;;31.40;92.90;;;;;;5027161;28;20429;-78
2022/08/15 13:24:35;;;;;;;3.85;1.80;;;31.30;92.60;;;;;;5028305;28;20426;-76